Time;durP1;ratioP1;P1;durP2;ratioP2;P2;SDS_P1;SDS_P2;PMS_P1;PMS_P2;Temp;Humidity;BMP_temperature;BMP_pressure;BME280_temperature;BME280_humidity;BME280_pressure;Samples;Min_cycle;Max_cycle;Signal;HPM_P1;HPM_P2
2023/10/21 00:01:41;;;;;;;4.70;2.00;;;;;;;17.86;71.71;92758.00;5067848;28;20056;-83
2023/10/21 00:04:08;;;;;;;5.30;1.98;;;;;;;17.76;71.96;92745.03;5068116;28;20958;-84
2023/10/21 00:06:35;;;;;;;6.95;2.67;;;;;;;17.87;71.94;92762.16;5065232;28;20072;-83
2023/10/21 00:09:03;;;;;;;5.97;2.13;;;;;;;17.82;71.64;92746.56;5067881;28;20049;-83
2023/10/21 00:11:30;;;;;;;6.15;2.00;;;;;;;17.92;71.33;92757.97;5062828;28;20044;-84
2023/10/21 00:13:57;;;;;;;6.80;2.30;;;;;;;17.92;71.22;92753.56;5068023;28;20044;-85
2023/10/21 00:16:24;;;;;;;5.70;1.75;;;;;;;17.95;70.91;92755.63;5068084;28;20114;-87
2023/10/21 00:18:51;;;;;;;8.48;1.73;;;;;;;17.92;71.18;92756.16;5062298;28;20865;-85
2023/10/21 00:21:18;;;;;;;6.65;2.22;;;;;;;17.95;71.25;92758.22;5065989;28;20044;-82
2023/10/21 00:23:45;;;;;;;5.60;1.63;;;;;;;17.92;70.98;92766.56;5066817;28;20071;-84
2023/10/21 00:26:14;;;;;;;5.00;1.70;;;;;;;17.95;70.94;92767.84;5063190;28;20045;-84
2023/10/21 00:28:40;;;;;;;10.73;2.03;;;;;;;17.94;71.03;92763.69;5068130;28;20045;-85
2023/10/21 00:31:07;;;;;;;8.57;2.25;;;;;;;17.97;71.13;92778.75;5067308;28;20044;-84
2023/10/21 00:33:34;;;;;;;5.30;2.13;;;;;;;17.90;71.69;92772.03;5064086;28;20053;-85
2023/10/21 00:36:01;;;;;;;8.27;1.90;;;;;;;17.93;71.66;92764.72;5063173;28;20045;-85
2023/10/21 00:38:28;;;;;;;7.35;2.55;;;;;;;17.94;71.08;92785.25;5065778;28;20079;-81
2023/10/21 00:40:57;;;;;;;5.82;1.85;;;;;;;17.82;70.89;92756.97;5063137;28;21281;-85
2023/10/21 00:43:35;;;;;;;6.70;2.15;;;;;;;17.98;70.76;92777.69;5060829;28;20044;-84
2023/10/21 00:46:05;;;;;;;12.02;2.38;;;;;;;17.90;69.78;92766.03;5063648;28;20048;-81
2023/10/21 00:48:32;;;;;;;4.97;2.00;;;;;;;17.96;70.55;92774.59;5056864;28;20049;-85
2023/10/21 00:50:59;;;;;;;5.35;2.03;;;;;;;17.60;70.99;92728.75;5054356;28;20089;-83
2023/10/21 00:53:26;;;;;;;7.10;1.80;;;;;;;17.82;70.41;92766.59;5064830;28;20507;-85
2023/10/21 00:55:53;;;;;;;8.02;2.08;;;;;;;17.59;71.05;92740.94;5062684;28;20060;-84
2023/10/21 00:58:21;;;;;;;4.68;2.33;;;;;;;17.89;71.23;92782.66;5066439;28;20508;-84
2023/10/21 01:00:50;;;;;;;8.00;2.78;;;;;;;17.83;71.39;92775.94;5063988;28;20088;-83
2023/10/21 01:03:17;;;;;;;9.10;2.70;;;;;;;17.83;72.22;92787.09;5060220;28;20500;-83
2023/10/21 01:05:44;;;;;;;6.28;2.42;;;;;;;17.73;72.75;92780.13;5063117;28;20045;-85
2023/10/21 01:08:11;;;;;;;4.97;2.63;;;;;;;17.57;71.97;92763.03;5062245;28;20432;-83
2023/10/21 01:10:38;;;;;;;5.25;2.13;;;;;;;17.69;72.59;92781.69;5063290;28;20094;-84
2023/10/21 01:13:04;;;;;;;5.30;1.80;;;;;;;17.68;72.55;92785.31;5064383;28;20500;-86
2023/10/21 01:15:31;;;;;;;4.07;2.47;;;;;;;17.65;72.56;92785.88;5065428;28;20056;-86
2023/10/21 01:18:00;;;;;;;7.47;2.35;;;;;;;17.67;73.18;92781.19;5058784;28;20044;-83
2023/10/21 01:20:26;;;;;;;6.88;1.80;;;;;;;17.63;72.88;92777.53;5061518;28;20037;-84
2023/10/21 01:22:55;;;;;;;6.10;2.17;;;;;;;17.62;72.04;92786.38;5063866;28;20059;-85
2023/10/21 01:25:24;;;;;;;5.85;2.00;;;;;;;17.59;72.29;92782.50;5065039;28;20050;-85
2023/10/21 01:27:53;;;;;;;9.70;2.00;;;;;;;17.53;71.64;92773.16;5066191;28;20051;-82
2023/10/21 01:30:20;;;;;;;4.75;1.88;;;;;;;17.52;71.45;92768.22;5066929;28;20052;-83
2023/10/21 01:32:47;;;;;;;5.38;2.03;;;;;;;17.60;71.60;92775.50;5066569;28;20048;-84
2023/10/21 01:35:14;;;;;;;4.57;2.47;;;;;;;17.54;71.60;92759.13;5063010;28;20094;-85
2023/10/21 01:37:42;;;;;;;4.75;1.80;;;;;;;17.63;71.34;92773.13;5064965;28;20052;-83
2023/10/21 01:40:10;;;;;;;6.22;2.00;;;;;;;17.56;71.83;92758.88;5066839;28;20044;-82
2023/10/21 01:42:38;;;;;;;5.15;1.90;;;;;;;17.56;71.16;92751.88;5060823;28;20049;-83
2023/10/21 01:45:07;;;;;;;6.00;1.92;;;;;;;17.63;71.41;92767.16;5060955;28;20060;-84
2023/10/21 01:47:35;;;;;;;6.22;1.88;;;;;;;17.61;70.77;92766.66;5059405;28;20773;-82
2023/10/21 01:50:03;;;;;;;7.15;1.90;;;;;;;17.45;70.70;92732.94;5066867;28;20072;-85
2023/10/21 01:52:30;;;;;;;6.25;1.50;;;;;;;17.66;70.80;92774.44;5064673;28;20076;-85
2023/10/21 01:54:56;;;;;;;4.80;2.72;;;;;;;17.67;71.22;92777.81;5060646;28;20059;-85
2023/10/21 01:57:23;;;;;;;7.65;2.45;;;;;;;17.59;70.87;92769.50;5062614;28;20048;-83
2023/10/21 01:59:51;;;;;;;3.38;1.48;;;;;;;17.71;70.59;92771.03;5066595;28;20059;-86
2023/10/21 02:02:18;;;;;;;4.88;1.58;;;;;;;17.54;70.44;92753.94;5061757;28;20052;-84
2023/10/21 02:04:45;;;;;;;4.45;1.75;;;;;;;17.71;70.63;92768.44;5065261;28;20094;-86
2023/10/21 02:07:12;;;;;;;5.20;1.92;;;;;;;17.74;70.80;92763.47;5063817;28;20049;-86
2023/10/21 02:09:39;;;;;;;5.72;1.90;;;;;;;17.74;71.33;92779.06;5066334;28;20059;-84
2023/10/21 02:12:07;;;;;;;5.25;2.47;;;;;;;17.76;71.51;92791.81;5062017;28;20052;-87
2023/10/21 02:14:34;;;;;;;4.20;1.75;;;;;;;17.68;72.07;92784.56;5066536;28;21357;-84
2023/10/21 02:17:02;;;;;;;4.75;1.70;;;;;;;17.58;72.96;92775.75;5067282;28;20052;-83
2023/10/21 02:19:29;;;;;;;4.40;1.77;;;;;;;17.50;73.16;92781.50;5067493;28;20054;-83
2023/10/21 02:21:56;;;;;;;7.47;2.10;;;;;;;17.25;73.40;92746.75;5065612;28;20052;-83
2023/10/21 02:24:23;;;;;;;7.07;1.92;;;;;;;17.39;73.88;92775.53;5065224;28;20048;-84
2023/10/21 02:26:50;;;;;;;3.80;1.88;;;;;;;17.35;74.35;92783.06;5061997;28;20052;-83
2023/10/21 02:29:17;;;;;;;5.10;2.30;;;;;;;17.26;74.81;92773.47;5067622;28;20501;-83
2023/10/21 02:31:43;;;;;;;5.95;2.42;;;;;;;17.20;75.51;92775.28;5067367;28;20055;-85
2023/10/21 02:34:12;;;;;;;6.55;1.95;;;;;;;17.03;75.68;92753.00;5067618;28;20053;-86
2023/10/21 02:36:39;;;;;;;5.53;2.20;;;;;;;17.15;76.11;92775.28;5069899;28;20044;-87
2023/10/21 02:39:07;;;;;;;7.22;2.25;;;;;;;17.12;76.38;92779.19;5064770;28;20052;-84
2023/10/21 02:41:34;;;;;;;6.78;2.20;;;;;;;17.09;76.85;92777.13;5068266;28;20102;-83
2023/10/21 02:44:02;;;;;;;6.07;2.65;;;;;;;17.04;77.08;92780.50;5064944;28;20059;-84
2023/10/21 02:46:28;;;;;;;6.93;2.50;;;;;;;16.89;77.23;92762.31;5067355;28;20056;-84
2023/10/21 02:48:55;;;;;;;7.43;2.30;;;;;;;16.91;77.42;92778.41;5067417;28;20639;-85
2023/10/21 02:51:24;;;;;;;4.80;2.20;;;;;;;16.96;77.81;92791.38;5062119;28;20053;-86
2023/10/21 02:53:51;;;;;;;4.00;2.40;;;;;;;16.91;78.04;92786.97;5069941;28;20131;-84
2023/10/21 02:56:18;;;;;;;6.15;2.20;;;;;;;16.80;78.61;92780.97;5067604;28;20052;-84
2023/10/21 02:58:45;;;;;;;4.50;2.10;;;;;;;16.81;78.79;92795.50;5062716;28;20055;-84
2023/10/21 03:01:19;;;;;;;5.75;2.40;;;;;;;16.79;79.08;92794.19;5068223;28;20049;-85
2023/10/21 03:03:46;;;;;;;8.45;1.90;;;;;;;16.64;79.35;92780.19;5069667;28;20138;-84
2023/10/21 03:06:14;;;;;;;4.50;2.13;;;;;;;16.58;79.60;92783.03;5069516;28;20059;-84
2023/10/21 03:08:43;;;;;;;8.30;1.85;;;;;;;16.59;79.44;92782.00;5065746;28;20056;-84
2023/10/21 03:11:10;;;;;;;5.05;1.80;;;;;;;16.33;79.55;92751.63;5066570;28;20053;-84
2023/10/21 03:13:38;;;;;;;4.53;2.00;;;;;;;16.53;79.60;92787.16;5066733;28;20810;-82
2023/10/21 03:16:06;;;;;;;5.65;2.13;;;;;;;16.55;79.74;92792.09;5062730;28;20500;-84
2023/10/21 03:18:33;;;;;;;7.97;2.40;;;;;;;16.52;79.56;92788.22;5067816;28;20425;-84
2023/10/21 03:21:00;;;;;;;4.85;2.10;;;;;;;16.49;79.68;92783.56;5067595;28;20048;-85
2023/10/21 03:23:27;;;;;;;9.65;2.40;;;;;;;16.41;79.62;92779.66;5067895;28;20055;-86
2023/10/21 03:25:59;;;;;;;5.22;2.10;;;;;;;16.51;79.23;92791.06;5066751;28;20048;-85
2023/10/21 03:28:27;;;;;;;3.95;2.08;;;;;;;16.55;78.98;92785.13;5063219;28;20045;-84
2023/10/21 03:31:12;;;;;;;6.78;2.30;;;;;;;16.63;79.29;92789.03;5067426;28;20550;-85
2023/10/21 03:33:39;;;;;;;6.07;2.28;;;;;;;16.62;79.25;92782.25;5069442;28;20049;-84
2023/10/21 03:36:07;;;;;;;4.70;1.88;;;;;;;16.67;78.80;92792.63;5062318;28;20059;-85
2023/10/21 03:38:34;;;;;;;5.22;2.05;;;;;;;16.62;78.50;92766.69;5066801;28;20051;-86
2023/10/21 03:41:04;;;;;;;5.15;2.00;;;;;;;16.78;78.09;92785.66;5068753;28;20047;-86
2023/10/21 03:43:32;;;;;;;4.28;1.73;;;;;;;16.83;77.43;92793.44;5068627;28;20052;-87
2023/10/21 03:46:03;;;;;;;4.63;1.88;;;;;;;16.67;77.79;92768.53;5062625;28;20067;-86
2023/10/21 03:48:30;;;;;;;4.38;2.13;;;;;;;16.66;77.96;92759.19;5068601;28;20072;-85
2023/10/21 03:51:04;;;;;;;5.05;2.10;;;;;;;16.75;78.25;92760.22;5068861;28;20048;-83
2023/10/21 03:53:31;;;;;;;6.72;2.28;;;;;;;16.89;78.50;92783.06;5068665;28;20706;-84
2023/10/21 03:55:58;;;;;;;6.13;2.10;;;;;;;16.87;78.96;92791.09;5058547;28;20049;-83
2023/10/21 03:58:26;;;;;;;7.65;2.30;;;;;;;16.83;79.29;92785.66;5067907;28;20045;-85
2023/10/21 04:00:54;;;;;;;6.00;2.10;;;;;;;16.90;79.40;92785.38;5061621;28;20071;-85
2023/10/21 04:03:21;;;;;;;5.75;1.95;;;;;;;16.74;79.60;92769.06;5068628;28;20048;-84
2023/10/21 04:05:48;;;;;;;6.38;3.10;;;;;;;16.82;79.88;92781.50;5064471;28;20052;-84
2023/10/21 04:08:14;;;;;;;6.45;2.15;;;;;;;16.75;80.47;92769.84;5065894;28;20044;-85
2023/10/21 04:10:41;;;;;;;6.68;2.60;;;;;;;16.66;80.60;92769.56;5068321;28;20049;-84
2023/10/21 04:13:08;;;;;;;4.40;2.38;;;;;;;16.73;80.59;92767.50;5063027;28;20417;-85
2023/10/21 04:15:37;;;;;;;5.05;1.95;;;;;;;16.74;80.67;92776.03;5068215;28;20135;-84
2023/10/21 04:18:04;;;;;;;6.03;2.15;;;;;;;16.74;81.40;92781.22;5068480;28;20052;-84
2023/10/21 04:20:31;;;;;;;5.47;2.25;;;;;;;16.64;81.20;92780.19;5063273;28;20048;-85
2023/10/21 04:22:58;;;;;;;6.00;2.13;;;;;;;16.61;81.40;92775.50;5066593;28;20052;-85
2023/10/21 04:25:26;;;;;;;6.35;1.75;;;;;;;16.56;81.74;92776.28;5065370;28;20044;-84
2023/10/21 04:27:53;;;;;;;7.18;2.55;;;;;;;16.55;81.78;92781.72;5061777;28;20041;-85
2023/10/21 04:30:20;;;;;;;5.55;2.03;;;;;;;16.51;81.82;92783.28;5068033;28;20052;-85
2023/10/21 04:32:48;;;;;;;2.92;1.90;;;;;;;16.33;81.76;92759.41;5067239;28;20075;-84
2023/10/21 04:35:15;;;;;;;5.15;2.15;;;;;;;16.39;81.76;92778.34;5063027;28;20048;-84
2023/10/21 04:37:42;;;;;;;3.85;2.15;;;;;;;16.21;81.76;92751.09;5067921;28;20048;-84
2023/10/21 04:40:11;;;;;;;6.15;2.22;;;;;;;16.43;81.60;92792.34;5061952;28;20516;-86
2023/10/21 04:42:38;;;;;;;11.85;2.42;;;;;;;16.43;81.78;92792.34;5062610;28;20067;-84
2023/10/21 04:45:06;;;;;;;5.00;2.05;;;;;;;16.36;81.38;92794.41;5066897;28;20041;-83
2023/10/21 04:47:33;;;;;;;6.80;2.40;;;;;;;16.42;81.36;92801.94;5065827;28;20045;-85
2023/10/21 04:50:01;;;;;;;7.15;2.63;;;;;;;16.37;81.45;92803.72;5062093;28;20055;-83
2023/10/21 04:52:28;;;;;;;6.38;1.98;;;;;;;16.36;81.45;92805.56;5067889;28;20075;-84
2023/10/21 04:54:55;;;;;;;6.22;2.28;;;;;;;16.39;81.34;92810.22;5060712;28;20045;-84
2023/10/21 04:57:22;;;;;;;6.32;2.00;;;;;;;16.36;81.15;92804.75;5065439;28;20044;-85
2023/10/21 04:59:51;;;;;;;7.57;3.15;;;;;;;16.30;81.42;92803.97;5067071;28;20618;-86
2023/10/21 05:02:18;;;;;;;5.70;2.13;;;;;;;16.39;81.20;92827.59;5067243;28;20049;-85
2023/10/21 05:04:45;;;;;;;8.20;2.35;;;;;;;16.29;81.31;92812.78;5060715;28;20055;-87
2023/10/21 05:07:13;;;;;;;9.32;2.60;;;;;;;16.35;81.20;92829.91;5065957;28;20044;-87
2023/10/21 05:09:40;;;;;;;5.70;2.08;;;;;;;16.38;81.39;92844.19;5067324;28;20511;-85
2023/10/21 05:12:10;;;;;;;5.80;2.20;;;;;;;16.43;81.60;92854.53;5061405;28;20047;-86
2023/10/21 05:14:37;;;;;;;10.07;2.50;;;;;;;16.25;81.54;92835.06;5069600;28;20139;-85
2023/10/21 05:17:03;;;;;;;9.48;2.38;;;;;;;16.44;81.24;92858.72;5065685;28;20508;-84
2023/10/21 05:19:32;;;;;;;8.50;2.38;;;;;;;16.43;81.24;92864.91;5069091;28;20056;-85
2023/10/21 05:21:59;;;;;;;6.68;2.22;;;;;;;16.44;81.55;92874.28;5071189;28;20064;-86
2023/10/21 05:24:27;;;;;;;6.30;2.30;;;;;;;16.48;81.43;92869.34;5069808;28;20063;-86
2023/10/21 05:26:54;;;;;;;6.13;2.90;;;;;;;15.99;81.30;92806.47;5069770;28;20044;-87
2023/10/21 05:29:21;;;;;;;5.25;2.72;;;;;;;16.51;81.32;92881.78;5069088;28;20135;-85
2023/10/21 05:31:49;;;;;;;6.55;2.25;;;;;;;16.51;81.51;92882.59;5067231;28;20044;-85
2023/10/21 05:34:19;;;;;;;10.82;3.20;;;;;;;16.46;81.33;92874.78;5073849;28;20068;-86
2023/10/21 05:36:46;;;;;;;4.95;2.20;;;;;;;16.55;81.06;92888.81;5064715;28;20797;-83
2023/10/21 05:39:13;;;;;;;10.18;2.30;;;;;;;16.58;80.26;92902.31;5072249;28;20552;-81
2023/10/21 05:41:41;;;;;;;7.10;2.00;;;;;;;16.58;79.91;92895.31;5068328;28;20045;-85
2023/10/21 05:44:09;;;;;;;9.85;2.30;;;;;;;16.67;79.32;92905.97;5064869;28;20049;-86
2023/10/21 05:46:35;;;;;;;10.93;3.63;;;;;;;16.77;78.66;92918.19;5068845;28;20059;-83
2023/10/21 05:49:02;;;;;;;9.43;2.53;;;;;;;16.79;77.80;92914.31;5066572;28;20064;-83
2023/10/21 05:51:30;;;;;;;5.18;2.10;;;;;;;16.81;78.14;92912.22;5071765;28;20048;-84
2023/10/21 05:53:57;;;;;;;4.60;2.00;;;;;;;16.96;76.78;92921.09;5079447;28;20071;-82
2023/10/21 05:56:24;;;;;;;5.10;2.22;;;;;;;17.04;76.22;92919.84;5070812;28;20055;-83
2023/10/21 05:58:52;;;;;;;6.78;2.40;;;;;;;17.12;75.88;92924.50;5075140;28;20505;-82
2023/10/21 06:01:19;;;;;;;6.70;1.88;;;;;;;17.16;75.46;92925.56;5069871;28;20044;-86
2023/10/21 06:03:46;;;;;;;6.07;2.25;;;;;;;17.29;74.92;92928.69;5068456;28;20048;-85
2023/10/21 06:06:13;;;;;;;12.43;3.53;;;;;;;17.39;74.12;92926.09;5068690;28;20055;-81
2023/10/21 06:08:40;;;;;;;6.65;2.03;;;;;;;17.50;73.82;92926.91;5074075;28;20496;-84
2023/10/21 06:11:08;;;;;;;5.05;2.15;;;;;;;17.56;73.43;92927.66;5073906;28;20057;-84
2023/10/21 06:13:34;;;;;;;6.10;1.83;;;;;;;17.53;72.71;92908.19;5069638;28;20048;-85
2023/10/21 06:16:03;;;;;;;6.63;2.10;;;;;;;17.43;72.13;92884.81;5061546;28;20120;-84
2023/10/21 06:18:30;;;;;;;6.93;2.95;;;;;;;17.76;71.66;92932.88;5086108;28;20048;-85
2023/10/21 06:20:57;;;;;;;5.35;2.22;;;;;;;17.83;71.75;92929.97;5085236;28;20048;-85
2023/10/21 06:23:24;;;;;;;8.50;2.40;;;;;;;18.02;71.36;92932.06;5073101;28;20053;-83
2023/10/21 06:25:50;;;;;;;8.55;2.40;;;;;;;18.14;70.61;92929.19;5062343;28;20044;-83
2023/10/21 06:28:17;;;;;;;8.38;2.53;;;;;;;18.28;70.02;92935.41;5069891;28;20048;-83
2023/10/21 06:30:44;;;;;;;6.43;2.03;;;;;;;18.41;69.12;92936.66;5067251;28;20057;-87
2023/10/21 06:33:13;;;;;;;7.68;2.55;;;;;;;18.30;68.01;92907.31;5068216;28;20056;-86
2023/10/21 06:35:40;;;;;;;6.25;2.33;;;;;;;18.62;68.05;92938.41;5068488;28;20098;-88
2023/10/21 06:38:08;;;;;;;7.70;2.10;;;;;;;18.82;67.56;92945.34;5067099;28;20056;-85
2023/10/21 06:40:35;;;;;;;5.50;2.10;;;;;;;18.90;66.79;92933.63;5066082;28;20428;-82
2023/10/21 06:43:10;;;;;;;8.45;2.28;;;;;;;19.09;66.00;92942.41;5074434;28;20454;-86
2023/10/21 06:45:38;;;;;;;6.45;2.08;;;;;;;19.23;65.36;92950.38;5061981;28;20516;-85
2023/10/21 06:48:06;;;;;;;4.85;1.90;;;;;;;19.38;64.66;92951.31;5074358;28;20051;-83
2023/10/21 06:50:35;;;;;;;10.50;2.25;;;;;;;19.46;64.09;92942.94;5084815;28;20056;-86
2023/10/21 06:53:02;;;;;;;7.28;2.22;;;;;;;19.63;62.88;92933.97;5067194;28;20049;-83
2023/10/21 06:55:29;;;;;;;6.32;2.10;;;;;;;19.75;63.50;92934.38;5065161;28;20049;-83
2023/10/21 06:57:57;;;;;;;7.03;1.80;;;;;;;19.94;63.12;92948.56;5067327;28;20049;-86
2023/10/21 07:00:27;;;;;;;7.53;2.13;;;;;;;19.96;62.52;92930.81;5068107;28;20052;-81
2023/10/21 07:02:54;;;;;;;3.60;1.92;;;;;;;20.12;61.82;92945.28;5074037;28;20071;-80
2023/10/21 07:05:20;;;;;;;9.77;2.42;;;;;;;20.22;61.34;92948.88;5070970;28;20052;-84
2023/10/21 07:07:51;;;;;;;9.63;3.20;;;;;;;20.22;61.06;92935.81;5077791;28;20056;-83
2023/10/21 07:10:18;;;;;;;10.68;2.70;;;;;;;20.40;60.72;92942.94;5071955;28;20052;-82
2023/10/21 07:12:45;;;;;;;11.80;3.13;;;;;;;20.51;60.16;92940.22;5071989;28;20048;-83
2023/10/21 07:15:12;;;;;;;9.95;1.90;;;;;;;20.69;60.26;92933.50;5072624;28;20048;-84
2023/10/21 07:17:39;;;;;;;8.88;2.35;;;;;;;20.88;58.78;92946.56;5074650;28;20048;-80
2023/10/21 07:20:07;;;;;;;9.27;2.10;;;;;;;20.82;58.33;92924.97;5070205;28;20049;-82
2023/10/21 07:22:33;;;;;;;10.48;2.33;;;;;;;21.11;57.70;92938.22;5065599;28;20052;-85
2023/10/21 07:25:02;;;;;;;9.00;2.22;;;;;;;21.17;56.89;92931.84;5077166;28;20048;-83
2023/10/21 07:27:29;;;;;;;12.95;2.97;;;;;;;21.27;56.33;92946.59;5068733;28;20075;-84
2023/10/21 07:29:58;;;;;;;13.82;3.58;;;;;;;21.35;56.01;92931.06;5074425;28;20049;-82
2023/10/21 07:32:25;;;;;;;13.27;3.67;;;;;;;21.26;55.58;92905.88;5069238;28;20049;-81
2023/10/21 07:34:51;;;;;;;6.72;2.58;;;;;;;21.59;54.85;92939.88;5064615;28;20052;-83
2023/10/21 07:37:18;;;;;;;12.75;3.30;;;;;;;21.76;53.64;92947.22;5076965;28;20055;-81
2023/10/21 07:42:38;;;;;;;9.27;1.85;;;;;;;21.82;52.55;92914.69;5068889;28;20044;-82
2023/10/21 07:45:06;;;;;;;7.13;1.48;;;;;;;22.14;52.83;92951.56;5077383;28;20519;-87
2023/10/21 07:47:36;;;;;;;6.70;2.45;;;;;;;22.25;51.96;92957.38;5078958;28;20055;-84
2023/10/21 07:50:06;;;;;;;12.68;3.38;;;;;;;22.41;52.36;92957.91;5072802;28;20053;-83
2023/10/21 07:52:35;;;;;;;6.93;2.15;;;;;;;22.55;51.66;92957.94;5072940;28;20048;-83
2023/10/21 07:55:02;;;;;;;9.60;2.60;;;;;;;22.69;50.82;92948.22;5071615;28;20098;-83
2023/10/21 07:57:32;;;;;;;9.27;2.03;;;;;;;22.67;49.29;92933.88;5069830;28;20052;-84
2023/10/21 08:00:00;;;;;;;8.90;1.88;;;;;;;22.89;49.60;92953.34;5069597;28;20044;-82
2023/10/21 08:02:33;;;;;;;9.93;2.30;;;;;;;23.02;50.09;92949.16;5069720;28;20049;-82
2023/10/21 08:05:01;;;;;;;7.40;1.98;;;;;;;22.94;49.11;92925.22;5079251;28;20117;-85
2023/10/21 08:07:27;;;;;;;7.78;2.90;;;;;;;23.16;48.95;92941.28;5070192;28;20045;-82
2023/10/21 08:10:00;;;;;;;9.70;2.40;;;;;;;23.20;48.43;92950.84;5075065;28;20045;-82
2023/10/21 08:12:28;;;;;;;11.43;1.95;;;;;;;23.37;48.26;92946.84;5073035;28;20412;-84
2023/10/21 08:14:55;;;;;;;9.77;2.20;;;;;;;23.43;47.85;92948.31;5070590;28;20055;-84
2023/10/21 08:17:24;;;;;;;6.40;2.38;;;;;;;23.42;47.28;92941.50;5073370;28;20056;-83
2023/10/21 08:19:50;;;;;;;9.23;2.35;;;;;;;23.57;47.81;92953.50;5070695;28;20044;-82
2023/10/21 08:22:17;;;;;;;8.02;2.17;;;;;;;23.73;47.93;92955.75;5070620;28;20048;-87
2023/10/21 08:24:44;;;;;;;4.65;1.45;;;;;;;23.80;47.78;92950.09;5072666;28;20056;-83
2023/10/21 08:27:11;;;;;;;6.03;1.90;;;;;;;23.79;47.82;92954.56;5071897;28;20133;-84
2023/10/21 08:29:38;;;;;;;6.68;2.40;;;;;;;23.86;47.35;92956.78;5073738;28;20048;-83
2023/10/21 08:32:05;;;;;;;6.38;2.78;;;;;;;23.82;47.81;92955.81;5069582;28;20055;-83
2023/10/21 08:34:36;;;;;;;7.25;2.05;;;;;;;23.78;48.83;92955.63;5073470;28;20060;-82
2023/10/21 08:37:04;;;;;;;8.00;1.63;;;;;;;23.82;48.62;92968.91;5070440;28;20052;-83
2023/10/21 08:39:31;;;;;;;3.90;1.70;;;;;;;23.83;47.91;92965.25;5069824;28;20052;-83
2023/10/21 08:41:58;;;;;;;6.15;2.72;;;;;;;23.84;47.66;92956.31;5071030;28;20052;-81
2023/10/21 08:44:25;;;;;;;6.57;1.83;;;;;;;23.89;47.78;92959.56;5071530;28;20084;-81
2023/10/21 08:46:54;;;;;;;9.98;2.05;;;;;;;23.99;48.21;92948.06;5068787;28;20052;-86
2023/10/21 08:49:21;;;;;;;6.78;2.10;;;;;;;24.02;48.00;92954.53;5072582;28;20079;-81
2023/10/21 08:51:53;;;;;;;5.47;2.08;;;;;;;24.03;48.02;92951.63;5069636;28;20056;-82
2023/10/21 08:54:20;;;;;;;9.20;2.03;;;;;;;23.99;47.98;92955.16;5070656;28;20053;-82
2023/10/21 08:56:47;;;;;;;7.25;1.85;;;;;;;24.00;47.62;92960.09;5068286;28;20052;-82
2023/10/21 08:59:15;;;;;;;9.13;1.83;;;;;;;24.22;47.18;92945.44;5070086;28;20041;-82
2023/10/21 09:01:45;;;;;;;5.53;1.63;;;;;;;24.37;47.07;92935.59;5073139;28;20080;-83
2023/10/21 09:04:13;;;;;;;6.90;1.58;;;;;;;24.49;46.35;92937.66;5069097;28;20413;-82
2023/10/21 09:06:55;;;;;;;7.10;2.10;;;;;;;24.64;46.78;92952.22;5068326;28;20052;-84
2023/10/21 09:09:26;;;;;;;10.25;2.17;;;;;;;24.82;45.58;92942.56;5070587;28;20048;-82
2023/10/21 09:12:04;;;;;;;5.07;1.90;;;;;;;24.96;45.88;92945.06;5070024;28;20048;-84
2023/10/21 09:14:32;;;;;;;5.55;1.52;;;;;;;24.99;44.95;92939.19;5077068;28;20051;-82
2023/10/21 09:16:59;;;;;;;7.53;1.88;;;;;;;25.11;43.98;92954.34;5072940;28;20106;-83
2023/10/21 09:19:26;;;;;;;11.70;1.60;;;;;;;24.98;42.49;92911.38;5072271;28;20139;-81
2023/10/21 09:21:55;;;;;;;10.52;2.85;;;;;;;25.34;40.38;92962.09;5072615;28;20055;-81
2023/10/21 09:24:23;;;;;;;10.43;2.17;;;;;;;25.38;39.52;92947.28;5068164;28;20666;-84
2023/10/21 09:26:51;;;;;;;11.98;3.05;;;;;;;25.34;39.42;92949.75;5065456;28;20048;-81
2023/10/21 09:29:20;;;;;;;5.90;1.88;;;;;;;25.37;38.66;92947.56;5074970;28;20133;-84
2023/10/21 09:31:50;;;;;;;8.68;1.60;;;;;;;25.41;39.56;92945.88;5081137;28;20056;-85
2023/10/21 09:34:29;;;;;;;8.30;1.90;;;;;;;25.45;39.68;92939.69;5068797;28;20074;-82
2023/10/21 09:36:58;;;;;;;6.95;2.15;;;;;;;25.48;38.92;92943.56;5065387;28;20055;-82
2023/10/21 09:39:28;;;;;;;5.53;2.13;;;;;;;25.58;38.64;92953.00;5063856;28;20041;-84
2023/10/21 09:41:55;;;;;;;6.88;1.48;;;;;;;25.21;38.60;92887.56;5065545;28;20775;-89
2023/10/21 09:44:23;;;;;;;11.38;1.98;;;;;;;25.69;37.69;92951.59;5077886;28;20060;-85
2023/10/21 09:46:51;;;;;;;7.10;1.83;;;;;;;25.78;39.02;92945.56;5084900;28;20056;-83
2023/10/21 09:49:23;;;;;;;15.73;2.78;;;;;;;25.80;38.44;92938.13;5067693;28;20048;-84
2023/10/21 09:51:57;;;;;;;8.02;1.95;;;;;;;25.81;37.98;92940.47;5070210;28;20044;-82
2023/10/21 09:54:32;;;;;;;7.85;1.80;;;;;;;25.91;38.17;92930.69;5071352;28;20048;-81
2023/10/21 09:57:01;;;;;;;8.35;2.00;;;;;;;25.93;38.30;92931.16;5066789;28;20471;-81
2023/10/21 09:59:29;;;;;;;6.40;1.52;;;;;;;25.98;38.08;92949.41;5064392;28;20052;-82
2023/10/21 10:02:00;;;;;;;5.90;2.08;;;;;;;25.58;37.87;92880.16;5064529;28;20048;-83
2023/10/21 10:04:28;;;;;;;17.45;1.73;;;;;;;26.00;36.88;92934.06;5067603;28;20048;-83
2023/10/21 10:06:59;;;;;;;8.40;1.80;;;;;;;25.98;37.71;92930.97;5065860;28;20044;-81
2023/10/21 10:09:29;;;;;;;9.80;1.85;;;;;;;25.84;38.50;92910.13;5072546;28;20058;-84
2023/10/21 10:11:59;;;;;;;5.13;1.80;;;;;;;26.05;37.48;92912.84;5066322;28;20048;-81
2023/10/21 10:14:28;;;;;;;10.20;1.80;;;;;;;26.21;37.99;92931.53;5068966;28;20040;-84
2023/10/21 10:16:55;;;;;;;5.18;1.63;;;;;;;26.10;37.20;92901.38;5066028;28;20063;-82
2023/10/21 10:19:39;;;;;;;9.60;2.72;;;;;;;26.21;37.55;92926.28;5076862;28;20052;-84
2023/10/21 10:22:20;;;;;;;6.63;1.75;;;;;;;26.25;37.02;92913.28;5066596;28;20496;-82
2023/10/21 10:24:57;;;;;;;7.68;2.35;;;;;;;26.35;37.96;92920.06;5065186;28;20053;-84
2023/10/21 10:27:36;;;;;;;7.03;1.75;;;;;;;26.34;36.83;92916.63;5064985;28;20048;-82
2023/10/21 10:30:08;;;;;;;10.15;1.85;;;;;;;26.34;37.46;92910.63;5069871;28;20060;-87
2023/10/21 10:32:43;;;;;;;6.28;1.85;;;;;;;26.39;37.27;92902.53;5067100;28;20057;-82
2023/10/21 10:35:13;;;;;;;11.15;1.95;;;;;;;26.38;37.17;92920.19;5068987;28;20562;-82
2023/10/21 10:37:52;;;;;;;8.48;2.20;;;;;;;26.15;36.60;92882.78;5069062;28;20091;-83
2023/10/21 10:40:33;;;;;;;8.20;2.08;;;;;;;26.43;36.67;92906.09;5070669;28;20578;-81
2023/10/21 10:43:00;;;;;;;6.38;1.80;;;;;;;26.35;36.31;92899.00;5074698;28;20044;-83
2023/10/21 10:45:27;;;;;;;5.40;2.15;;;;;;;26.30;36.85;92904.44;5070914;28;20056;-81
2023/10/21 10:48:00;;;;;;;5.80;1.30;;;;;;;26.37;37.01;92917.88;5067591;28;20041;-81
2023/10/21 10:50:27;;;;;;;11.35;2.85;;;;;;;26.37;35.72;92910.75;5064113;28;20072;-81
2023/10/21 10:52:55;;;;;;;9.30;3.33;;;;;;;26.31;36.91;92913.88;5080557;28;20055;-81
2023/10/21 10:55:23;;;;;;;7.25;1.77;;;;;;;26.32;36.66;92918.81;5088262;28;20044;-82
2023/10/21 10:57:51;;;;;;;10.55;1.85;;;;;;;26.34;36.81;92913.25;5085907;28;20052;-83
2023/10/21 11:00:21;;;;;;;8.13;2.30;;;;;;;26.37;36.41;92886.28;5076405;28;20138;-84
2023/10/21 11:02:49;;;;;;;6.78;2.17;;;;;;;26.46;36.51;92909.94;5075043;28;20121;-84
2023/10/21 11:05:17;;;;;;;9.05;2.20;;;;;;;26.43;36.82;92908.72;5074131;28;20059;-83
2023/10/21 11:07:44;;;;;;;10.20;1.60;;;;;;;26.33;36.22;92909.06;5073588;28;20048;-81
2023/10/21 11:10:29;;;;;;;5.97;1.55;;;;;;;26.39;35.74;92907.81;5071400;28;20049;-80
2023/10/21 11:12:58;;;;;;;9.45;1.52;;;;;;;26.35;35.75;92905.03;5067789;28;20055;-80
2023/10/21 11:15:25;;;;;;;6.35;1.48;;;;;;;26.42;36.35;92904.53;5061375;28;20045;-85
2023/10/21 11:17:53;;;;;;;5.30;1.73;;;;;;;26.49;36.79;92896.13;5075776;28;20048;-82
2023/10/21 11:20:20;;;;;;;7.80;2.03;;;;;;;26.57;35.95;92899.81;5077337;28;20045;-82
2023/10/21 11:22:47;;;;;;;6.40;1.58;;;;;;;26.60;36.58;92893.94;5064145;28;20041;-80
2023/10/21 11:25:13;;;;;;;8.18;1.40;;;;;;;25.83;35.99;92780.44;5066130;28;20052;-82
2023/10/21 11:27:41;;;;;;;7.05;1.88;;;;;;;26.27;36.39;92827.63;5068364;28;20044;-82
2023/10/21 11:30:10;;;;;;;7.85;1.80;;;;;;;26.71;36.23;92895.09;5068285;28;20036;-81
2023/10/21 11:32:38;;;;;;;8.45;1.92;;;;;;;26.64;36.20;92887.69;5069143;28;20045;-81
2023/10/21 11:35:09;;;;;;;8.20;2.45;;;;;;;26.77;35.82;92885.13;5077721;28;20053;-82
2023/10/21 11:37:38;;;;;;;5.78;1.52;;;;;;;26.39;35.65;92848.00;5066918;28;20048;-83
2023/10/21 11:40:09;;;;;;;8.45;1.85;;;;;;;26.62;35.60;92873.28;5073884;28;20059;-83